Latest Weather Observations for Wattamolla

IDN60801

Issued at 7:02 pm EST Friday 6 May 2016 (issued every 30 minutes, with the page automatically refreshed every 10 minutes)

About weather observations | Map of weather stations | Latest weather observations for NSW | Other Formats
Station Details ID: 066208 Name: WATTAMOLLA AWS Lat: -34.14 Lon: 151.12 Height: 44.0 m
Data from the previous 72 hours. | See also: Recent months for locations in New South Wales
Date/Time
EST
Temp
°C
App
Temp
°C
Dew
Point
Rel
Hum
%
Delta-T
°C
Wind Press
QNH
hPa
Press
MSL
hPa
Rain
since 9 am
mm
Dir
 
Spd
km/h
Gust
km/h
Spd
kts
Gust
kts
06/07:00pm - - - - - NW 11 13 6 7 - - -
06/06:30pm - - - - - NW 13 15 7 8 - - -
06/06:00pm - - - - - NW 11 13 6 7 - - -
06/05:30pm - - - - - NNW 11 13 6 7 - - -
06/05:00pm - - - - - N 9 13 5 7 - - -
06/04:30pm - - - - - NE 9 13 5 7 - - -
06/04:00pm - - - - - NE 11 13 6 7 - - -
06/03:30pm - - - - - SE 7 13 4 7 - - -
06/03:00pm - - - - - SE 9 13 5 7 - - -
06/02:30pm - - - - - ESE 11 15 6 8 - - -
06/02:00pm - - - - - SE 13 15 7 8 - - -
06/01:30pm - - - - - SE 9 11 5 6 - - -
06/01:00pm - - - - - SE 11 13 6 7 - - -
06/12:30pm - - - - - SSE 13 13 7 7 - - -
06/12:00pm - - - - - SSE 11 13 6 7 - - -
06/11:30am - - - - - SSE 13 15 7 8 - - -
06/11:00am - - - - - S 13 15 7 8 - - -
06/10:30am - - - - - S 13 19 7 10 - - -
06/10:00am - - - - - WSW 15 24 8 13 - - -
06/09:30am - - - - - W 17 26 9 14 - - -
06/09:00am - - - - - W 19 26 10 14 - - -
06/08:30am - - - - - WNW 15 26 8 14 - - -
06/08:00am - - - - - W 17 24 9 13 - - -
06/07:30am - - - - - WNW 15 19 8 10 - - -
06/07:00am - - - - - WNW 19 26 10 14 - - -
06/06:30am - - - - - WNW 9 13 5 7 - - -
06/06:00am - - - - - WNW 9 13 5 7 - - -
06/05:30am - - - - - NW 19 22 10 12 - - -
06/05:00am - - - - - NW 19 22 10 12 - - -
06/04:30am - - - - - NW 15 19 8 10 - - -
06/04:00am - - - - - NW 15 19 8 10 - - -
06/03:30am - - - - - NW 13 15 7 8 - - -
06/03:00am - - - - - WSW 9 13 5 7 - - -
06/02:30am - - - - - W 17 20 9 11 - - -
06/02:00am - - - - - WSW 22 26 12 14 - - -
06/01:30am - - - - - W 17 20 9 11 - - -
06/01:00am - - - - - WSW 11 15 6 8 - - -
06/12:30am - - - - - W 13 17 7 9 - - -
06/12:00am - - - - - S 4 9 2 5 - - -
 
Date/Time
EST
Temp
°C
App
Temp
°C
Dew
Point
Rel
Hum
%
Delta-T
°C
Wind Press
QNH
hPa
Press
MSL
hPa
Rain
since 9 am
mm
Dir
 
Spd
km/h
Gust
km/h
Spd
kts
Gust
kts
05/11:30pm - - - - - NW 13 17 7 9 - - -
05/11:00pm - - - - - NNW 11 15 6 8 - - -
05/10:30pm - - - - - NW 13 17 7 9 - - -
05/10:00pm - - - - - NW 17 20 9 11 - - -
05/09:30pm - - - - - NW 17 19 9 10 - - -
05/09:00pm - - - - - NW 15 17 8 9 - - -
05/08:30pm - - - - - NNW 17 19 9 10 - - -
05/08:00pm - - - - - NNW 19 19 10 10 - - -
05/07:30pm - - - - - NNW 17 17 9 9 - - -
05/07:00pm - - - - - N 17 19 9 10 - - -
05/06:30pm - - - - - N 17 19 9 10 - - -
05/06:00pm - - - - - NNE 17 20 9 11 - - -
05/05:30pm - - - - - N 15 19 8 10 - - -
05/05:00pm - - - - - NNE 19 28 10 15 - - -
05/04:30pm - - - - - NNE 17 26 9 14 - - -
05/04:00pm - - - - - NE 19 28 10 15 - - -
05/03:30pm - - - - - NE 17 26 9 14 - - -
05/03:00pm - - - - - NE 19 28 10 15 - - -
05/02:30pm - - - - - NE 17 26 9 14 - - -
05/02:00pm - - - - - NNE 15 20 8 11 - - -
05/01:30pm - - - - - N 15 22 8 12 - - -
05/01:00pm - - - - - N 13 19 7 10 - - -
05/12:30pm - - - - - NNW 11 19 6 10 - - -
05/12:00pm - - - - - SE 9 13 5 7 - - -
05/11:30am - - - - - E 11 15 6 8 - - -
05/11:00am - - - - - E 9 13 5 7 - - -
05/10:30am - - - - - E 7 9 4 5 - - -
05/10:00am - - - - - SE 9 15 5 8 - - -
05/09:30am - - - - - WNW 9 13 5 7 - - -
05/09:00am - - - - - WNW 13 20 7 11 - - -
05/08:30am - - - - - W 15 20 8 11 - - -
05/08:00am - - - - - W 20 26 11 14 - - -
05/07:30am - - - - - W 26 33 14 18 - - -
05/07:00am - - - - - WSW 9 17 5 9 - - -
05/06:30am - - - - - WSW 20 28 11 15 - - -
05/06:00am - - - - - W 19 26 10 14 - - -
05/05:30am - - - - - W 19 24 10 13 - - -
05/05:00am - - - - - W 17 22 9 12 - - -
05/04:30am - - - - - W 17 20 9 11 - - -
05/04:00am - - - - - W 22 26 12 14 - - -
05/03:30am - - - - - W 17 20 9 11 - - -
05/03:00am - - - - - W 13 17 7 9 - - -
05/02:30am - - - - - W 9 13 5 7 - - -
05/02:00am - - - - - SW 13 13 7 7 - - -
05/01:30am - - - - - W 11 13 6 7 - - -
05/01:00am - - - - - W 13 17 7 9 - - -
05/12:30am - - - - - W 15 17 8 9 - - -
05/12:00am - - - - - WSW 15 17 8 9 - - -
 
Date/Time
EST
Temp
°C
App
Temp
°C
Dew
Point
Rel
Hum
%
Delta-T
°C
Wind Press
QNH
hPa
Press
MSL
hPa
Rain
since 9 am
mm
Dir
 
Spd
km/h
Gust
km/h
Spd
kts
Gust
kts
04/11:30pm - - - - - WSW 15 17 8 9 - - -
04/11:00pm - - - - - WSW 15 15 8 8 - - -
04/10:30pm - - - - - SW 17 19 9 10 - - -
04/10:00pm - - - - - WNW 7 9 4 5 - - -
04/09:30pm - - - - - S 11 13 6 7 - - -
04/09:00pm - - - - - SSE 17 20 9 11 - - -
04/08:30pm - - - - - SSE 20 26 11 14 - - -
04/08:00pm - - - - - SSE 24 30 13 16 - - -
04/07:30pm - - - - - SSE 24 32 13 17 - - -
04/07:00pm - - - - - SSE 22 32 12 17 - - -
04/06:30pm - - - - - S 28 33 15 18 - - -
04/06:00pm - - - - - S 28 33 15 18 - - -
04/05:30pm - - - - - S 28 30 15 16 - - -
04/05:00pm - - - - - SSE 26 30 14 16 - - -
04/04:30pm - - - - - S 26 28 14 15 - - -
04/04:00pm - - - - - SSE 28 32 15 17 - - -
04/03:30pm - - - - - SSE 28 35 15 19 - - -
04/03:00pm - - - - - SSE 22 28 12 15 - - -
04/02:30pm - - - - - ESE 9 15 5 8 - - -
04/02:00pm - - - - - E 9 15 5 8 - - -
04/01:30pm - - - - - ESE 11 17 6 9 - - -
04/01:00pm - - - - - E 9 11 5 6 - - -
04/12:30pm - - - - - SSE 11 15 6 8 - - -
04/12:00pm - - - - - SSE 17 19 9 10 - - -
04/11:30am - - - - - SSE 11 19 6 10 - - -
04/11:00am - - - - - SSE 11 13 6 7 - - -
04/10:30am - - - - - S 17 19 9 10 - - -
04/10:00am - - - - - WSW 9 15 5 8 - - -
04/09:30am - - - - - WNW 13 19 7 10 - - -
04/09:00am - - - - - NW 19 26 10 14 - - -
04/08:30am - - - - - NW 24 32 13 17 - - -
04/08:00am - - - - - NW 26 32 14 17 - - -
04/07:30am - - - - - NW 28 33 15 18 - - -
04/07:00am - - - - - NW 22 30 12 16 - - -
04/06:30am - - - - - NW 17 24 9 13 - - -
04/06:00am - - - - - NW 19 26 10 14 - - -
04/05:30am - - - - - NW 17 24 9 13 - - -
04/05:00am - - - - - NNW 13 17 7 9 - - -
04/04:30am - - - - - NNW 17 24 9 13 - - -
04/04:00am - - - - - NNW 15 24 8 13 - - -
04/03:30am - - - - - NNW 15 20 8 11 - - -
04/03:00am - - - - - NNW 13 22 7 12 - - -
04/02:30am - - - - - NNW 17 24 9 13 - - -
04/02:00am - - - - - NNW 15 20 8 11 - - -
04/01:30am - - - - - NNW 17 24 9 13 - - -
04/01:00am - - - - - NNW 19 22 10 12 - - -
04/12:30am - - - - - NNW 19 22 10 12 - - -
04/12:00am - - - - - NW 15 19 8 10 - - -
 
Date/Time
EST
Temp
°C
App
Temp
°C
Dew
Point
Rel
Hum
%
Delta-T
°C
Wind Press
QNH
hPa
Press
MSL
hPa
Rain
since 9 am
mm
Dir
 
Spd
km/h
Gust
km/h
Spd
kts
Gust
kts
03/11:30pm - - - - - NW 15 17 8 9 - - -
03/11:00pm - - - - - NW 15 19 8 10 - - -
03/10:30pm - - - - - NW 15 17 8 9 - - -
03/10:00pm - - - - - NW 13 15 7 8 - - -
03/09:30pm - - - - - NW 9 13 5 7 - - -
03/09:00pm - - - - - NW 13 15 7 8 - - -
03/08:30pm - - - - - NW 15 17 8 9 - - -
03/08:00pm - - - - - NW 11 15 6 8 - - -
03/07:30pm - - - - - NW 15 20 8 11 - - -

Other Formats:

Comma delimited format used in spreadsheet applications
http://www.bom.gov.au/fwo/IDN60801/IDN60801.95752.axf

JavaScript Object Notation format (JSON) in row-major order
http://www.bom.gov.au/fwo/IDN60801/IDN60801.95752.json